Terminal Aerodrome Forecast
Issued by NWS Jacksonville, FL

Home | Current Version | Previous Version | Text Only | Print | Product List | Glossary On
Versions: 1 2 3 4 5 6 7 8 9 10 11 12 13 14 15 16 17 18 19 20 21 22 23 24 25 26 27 28 29
000
FTUS42 KJAX 032320
TAFGNV
TAF
KGNV 032320Z 0400/0424 17008KT P6SM FEW045 SCT070
     FM040600 17004KT P6SM BKN010
     FM040800 17004KT 3SM BR OVC004
      TEMPO 0409/0412 1 1/2SM BR OVC002
     FM041400 20010KT P6SM BKN020
     FM041600 20011G16KT P6SM SCT250=

USA.gov is the U.S. government's official web portal to all federal, state and local government web resources and services.